createdAt,value
2023-01-04T00:00:48.233Z,6.60
2023-01-04T00:01:51.091Z,6.49
2023-01-04T00:02:52.741Z,6.50
2023-01-04T00:03:55.428Z,6.61
2023-01-04T00:04:57.108Z,6.56
2023-01-04T00:06:00.543Z,6.76
2023-01-04T00:07:03.031Z,6.66
2023-01-04T00:08:04.921Z,6.70
2023-01-04T00:09:07.989Z,6.52
2023-01-04T00:10:09.471Z,6.52
2023-01-04T00:11:15.153Z,6.51
2023-01-04T00:12:17.646Z,6.41
2023-01-04T00:13:19.154Z,6.47
2023-01-04T00:14:21.611Z,6.44
2023-01-04T00:15:23.116Z,6.30
2023-01-04T00:16:27.221Z,6.37
2023-01-04T00:17:28.758Z,6.46
2023-01-04T00:18:31.308Z,6.43
2023-01-04T00:19:33.892Z,6.56
2023-01-04T00:20:35.448Z,6.34
2023-01-04T00:21:37.883Z,6.26
2023-01-04T00:22:39.364Z,6.33
2023-01-04T00:23:43.607Z,6.25
2023-01-04T00:24:45.783Z,6.08
2023-01-04T00:25:48.212Z,6.19
2023-01-04T00:26:52.103Z,6.18
2023-01-04T00:27:53.741Z,6.34
2023-01-04T00:28:57.109Z,6.02
2023-01-04T00:29:58.687Z,6.02
2023-01-04T00:31:03.411Z,5.88
2023-01-04T00:32:05.980Z,6.00
2023-01-04T00:33:07.500Z,5.84
2023-01-04T00:34:13.843Z,5.75
2023-01-04T00:35:43.576Z,5.67
2023-01-04T00:36:38.242Z,5.58
2023-01-04T00:37:39.725Z,5.58
2023-01-04T00:38:43.499Z,5.62
2023-01-04T00:39:45.923Z,5.45
2023-01-04T00:40:47.413Z,5.63
2023-01-04T00:42:01.513Z,5.34
2023-01-04T00:43:03.424Z,5.41
2023-01-04T00:44:06.687Z,5.12
2023-01-04T00:45:09.841Z,5.05
2023-01-04T00:46:11.628Z,5.05
2023-01-04T00:47:14.146Z,5.24
2023-01-04T00:48:15.686Z,5.33
2023-01-04T00:49:18.163Z,5.20
2023-01-04T00:50:19.779Z,5.21
2023-01-04T00:51:22.271Z,5.21
2023-01-04T00:52:23.828Z,5.03
2023-01-04T00:53:26.463Z,5.09
2023-01-04T00:54:29.330Z,5.00
2023-01-04T00:55:30.845Z,5.13
2023-01-04T00:56:34.257Z,5.13
2023-01-04T00:57:37.114Z,5.26
2023-01-04T00:58:39.563Z,5.22
2023-01-04T00:59:42.016Z,5.26
2023-01-04T01:00:43.618Z,5.14
2023-01-04T01:01:46.363Z,4.92
2023-01-04T01:02:48.194Z,5.04
2023-01-04T01:03:54.026Z,5.03
2023-01-04T01:04:55.959Z,5.04
2023-01-04T01:06:02.135Z,5.10
2023-01-04T01:07:04.634Z,5.34
2023-01-04T01:08:21.060Z,5.50
2023-01-04T01:09:24.032Z,5.57
2023-01-04T01:10:25.535Z,5.56
2023-01-04T01:11:29.163Z,5.62
2023-01-04T01:12:30.733Z,5.49
2023-01-04T01:13:35.366Z,5.15
2023-01-04T01:14:37.980Z,5.29
2023-01-04T01:15:40.845Z,5.23
2023-01-04T01:16:55.233Z,5.08
2023-01-04T01:17:59.389Z,5.35
2023-01-04T01:19:01.870Z,5.46
2023-01-04T01:20:05.228Z,5.29
2023-01-04T01:21:09.056Z,5.25
2023-01-04T01:22:10.586Z,5.21
2023-01-04T01:23:15.060Z,5.19
2023-01-04T01:24:18.495Z,5.35
2023-01-04T01:25:20.934Z,5.49
2023-01-04T01:26:23.974Z,5.68
2023-01-04T01:27:26.438Z,5.32
2023-01-04T01:28:28.636Z,5.45
2023-01-04T01:29:32.385Z,5.66
2023-01-04T01:30:34.143Z,5.57
2023-01-04T01:31:36.918Z,5.45
2023-01-04T01:32:38.489Z,5.22
2023-01-04T01:33:42.736Z,5.25
2023-01-04T01:34:45.218Z,5.06
2023-01-04T01:35:46.802Z,5.12
2023-01-04T01:36:49.575Z,5.34
2023-01-04T01:37:51.102Z,5.39
2023-01-04T01:38:54.114Z,5.40
2023-01-04T01:39:55.690Z,5.20
2023-01-04T01:40:58.199Z,5.22
2023-01-04T01:41:59.791Z,5.24
2023-01-04T01:43:02.324Z,5.14
2023-01-04T01:44:06.969Z,5.36
2023-01-04T01:45:29.125Z,5.56
2023-01-04T01:46:35.676Z,5.60
2023-01-04T01:47:42.696Z,5.36
2023-01-04T01:48:45.309Z,5.47
2023-01-04T01:49:50.683Z,5.46
2023-01-04T01:50:57.952Z,5.32
2023-01-04T01:52:03.952Z,5.35
2023-01-04T01:53:08.596Z,5.07
2023-01-04T01:54:14.339Z,5.11
2023-01-04T01:55:17.654Z,5.29
2023-01-04T01:56:19.652Z,5.36
2023-01-04T01:57:26.209Z,5.36
2023-01-04T01:58:31.696Z,5.63
2023-01-04T01:59:37.806Z,5.78
2023-01-04T02:00:40.643Z,5.76
2023-01-04T02:01:43.485Z,5.69
2023-01-04T02:02:53.330Z,5.61
2023-01-04T02:03:57.139Z,5.35
2023-01-04T02:05:01.573Z,4.76
2023-01-04T02:06:06.450Z,5.03
2023-01-04T02:07:09.333Z,5.14
2023-01-04T02:08:13.660Z,4.79
2023-01-04T02:09:16.808Z,4.61
2023-01-04T02:10:19.421Z,4.92
2023-01-04T02:11:20.908Z,4.80
2023-01-04T02:12:23.335Z,4.58
2023-01-04T02:13:48.559Z,4.79
2023-01-04T02:14:52.444Z,5.15
2023-01-04T02:16:07.225Z,5.26
2023-01-04T02:17:15.957Z,5.46
2023-01-04T02:18:25.268Z,5.47
2023-01-04T02:20:03.056Z,5.60
2023-01-04T02:21:09.619Z,5.66
2023-01-04T02:22:34.876Z,5.61
2023-01-04T02:24:12.781Z,5.45
2023-01-04T02:25:47.971Z,5.49
2023-01-04T02:27:34.021Z,5.54
2023-01-04T02:28:52.907Z,5.45
2023-01-04T02:30:27.468Z,5.44
2023-01-04T02:31:39.708Z,5.09
2023-01-04T02:32:57.799Z,5.41
2023-01-04T02:34:07.585Z,5.57
2023-01-04T02:35:18.514Z,5.54
2023-01-04T02:36:24.208Z,5.59
2023-01-04T02:37:36.428Z,5.51
2023-01-04T02:38:48.922Z,5.66
2023-01-04T02:40:05.028Z,5.51
2023-01-04T02:41:21.728Z,5.64
2023-01-04T02:42:47.158Z,5.64
2023-01-04T02:44:15.384Z,5.60
2023-01-04T02:45:21.109Z,5.63
2023-01-04T02:46:28.661Z,5.70
2023-01-04T02:47:54.682Z,5.62
2023-01-04T02:49:18.129Z,5.68
2023-01-04T02:50:32.294Z,5.77
2023-01-04T02:51:37.163Z,5.75
2023-01-04T02:52:38.822Z,5.81
2023-01-04T02:53:42.773Z,5.71
2023-01-04T02:54:46.402Z,5.85
2023-01-04T02:55:55.236Z,5.74
2023-01-04T02:57:20.320Z,5.70
2023-01-04T02:58:36.232Z,5.62
2023-01-04T03:00:03.528Z,5.64
2023-01-04T03:01:32.812Z,5.72
2023-01-04T03:03:14.327Z,5.57
2023-01-04T03:04:50.700Z,5.68
2023-01-04T03:06:18.215Z,5.68
2023-01-04T03:07:27.711Z,5.73
2023-01-04T03:08:35.109Z,5.72
2023-01-04T03:09:41.910Z,5.76
2023-01-04T03:10:48.153Z,5.81
2023-01-04T03:12:12.029Z,5.58
2023-01-04T03:13:18.216Z,5.63
2023-01-04T03:14:33.214Z,5.73
2023-01-04T03:15:40.083Z,5.72
2023-01-04T03:16:45.979Z,5.74
2023-01-04T03:17:54.378Z,5.83
2023-01-04T03:18:58.473Z,5.84
2023-01-04T03:20:04.635Z,5.94
2023-01-04T03:21:09.796Z,5.97
2023-01-04T03:22:30.590Z,5.96
2023-01-04T03:23:55.091Z,6.10
2023-01-04T03:25:15.275Z,5.91
2023-01-04T03:26:38.163Z,5.93
2023-01-04T03:28:01.763Z,6.11
2023-01-04T03:29:27.377Z,6.17
2023-01-04T03:30:49.012Z,6.23
2023-01-04T03:32:15.893Z,6.23
2023-01-04T03:33:38.065Z,6.15
2023-01-04T03:34:58.560Z,6.03
2023-01-04T03:36:09.577Z,6.08
2023-01-04T03:37:18.707Z,6.13
2023-01-04T03:38:47.756Z,6.16
2023-01-04T03:40:23.655Z,6.13
2023-01-04T03:41:49.174Z,6.11
2023-01-04T03:43:16.605Z,6.15
2023-01-04T03:44:47.695Z,6.15
2023-01-04T03:46:12.353Z,6.24
2023-01-04T03:47:37.477Z,6.46
2023-01-04T03:48:47.218Z,6.20
2023-01-04T03:49:57.422Z,6.05
2023-01-04T03:51:08.601Z,6.00
2023-01-04T03:52:12.835Z,6.16
2023-01-04T03:53:16.429Z,6.11
2023-01-04T03:54:23.379Z,6.17
2023-01-04T03:55:29.306Z,6.30
2023-01-04T03:56:34.179Z,6.38
2023-01-04T03:57:36.636Z,6.53
2023-01-04T03:58:39.958Z,6.42
2023-01-04T03:59:45.665Z,6.45
2023-01-04T04:00:48.514Z,6.23
2023-01-04T04:01:51.340Z,6.30
2023-01-04T04:02:52.919Z,6.34
2023-01-04T04:04:14.724Z,6.18
2023-01-04T04:05:36.871Z,6.26
2023-01-04T04:06:57.236Z,6.49
2023-01-04T04:08:17.455Z,6.59
2023-01-04T04:09:20.061Z,6.42
2023-01-04T04:10:21.668Z,6.46
2023-01-04T04:11:33.271Z,6.30
2023-01-04T04:12:34.749Z,6.47
2023-01-04T04:13:37.256Z,6.46
2023-01-04T04:14:38.928Z,6.59
2023-01-04T04:15:41.457Z,6.63
2023-01-04T04:16:44.044Z,6.80
2023-01-04T04:17:45.667Z,6.87
2023-01-04T04:18:49.001Z,6.88
2023-01-04T04:19:52.808Z,6.87
2023-01-04T04:20:57.663Z,6.79
2023-01-04T04:22:00.212Z,6.71
2023-01-04T04:23:01.917Z,6.82
2023-01-04T04:24:04.911Z,6.68
2023-01-04T04:25:07.391Z,6.69
2023-01-04T04:26:09.859Z,6.79
2023-01-04T04:27:11.370Z,6.76
2023-01-04T04:28:13.880Z,6.81
2023-01-04T04:29:15.400Z,6.69
2023-01-04T04:30:18.119Z,6.82
2023-01-04T04:31:19.711Z,6.79
2023-01-04T04:32:22.692Z,6.73
2023-01-04T04:33:24.233Z,6.78
2023-01-04T04:34:26.744Z,6.79
2023-01-04T04:35:29.687Z,6.86
2023-01-04T04:36:32.231Z,6.71
2023-01-04T04:37:34.652Z,6.59
2023-01-04T04:38:37.441Z,6.71
2023-01-04T04:39:38.982Z,6.83
2023-01-04T04:40:59.423Z,6.81
2023-01-04T04:42:01.964Z,6.84
2023-01-04T04:43:03.530Z,6.87
2023-01-04T04:44:06.716Z,6.84
2023-01-04T04:45:09.407Z,6.91
2023-01-04T04:46:11.996Z,6.96
2023-01-04T04:47:13.648Z,7.02
2023-01-04T04:48:16.110Z,6.87
2023-01-04T04:49:18.479Z,6.98
2023-01-04T04:50:21.049Z,7.05
2023-01-04T04:51:23.921Z,7.05
2023-01-04T04:52:26.403Z,6.94
2023-01-04T04:53:27.907Z,6.76
2023-01-04T04:54:30.419Z,6.94
2023-01-04T04:55:31.948Z,6.77
2023-01-04T04:56:34.575Z,6.77
2023-01-04T04:57:36.131Z,6.53
2023-01-04T04:58:39.405Z,6.58
2023-01-04T04:59:40.936Z,6.69
2023-01-04T05:00:43.465Z,6.70
2023-01-04T05:01:45.236Z,6.63
2023-01-04T05:02:47.982Z,6.66
2023-01-04T05:03:50.211Z,6.68
2023-01-04T05:04:52.675Z,6.72
2023-01-04T05:05:54.289Z,6.93
2023-01-04T05:06:58.095Z,7.12
2023-01-04T05:07:59.634Z,7.15
2023-01-04T05:09:02.133Z,7.10
2023-01-04T05:10:04.380Z,6.95
2023-01-04T05:11:07.646Z,6.71
2023-01-04T05:12:30.492Z,6.69
2023-01-04T05:13:32.018Z,6.66
2023-01-04T05:14:33.575Z,6.82
2023-01-04T05:15:38.157Z,6.94
2023-01-04T05:16:39.874Z,7.00
2023-01-04T05:17:42.435Z,6.77
2023-01-04T05:18:44.943Z,6.76
2023-01-04T05:19:46.453Z,6.82
2023-01-04T05:20:49.388Z,6.84
2023-01-04T05:21:50.987Z,6.91
2023-01-04T05:22:55.034Z,6.88
2023-01-04T05:23:56.577Z,6.98
2023-01-04T05:24:59.116Z,7.10
2023-01-04T05:26:03.717Z,7.10
2023-01-04T05:27:05.288Z,7.33
2023-01-04T05:28:08.737Z,7.34
2023-01-04T05:29:30.328Z,7.32
2023-01-04T05:30:50.528Z,7.13
2023-01-04T05:31:53.001Z,7.19
2023-01-04T05:32:54.526Z,7.40
2023-01-04T05:33:57.077Z,7.43
2023-01-04T05:34:58.607Z,7.23
2023-01-04T05:36:02.497Z,7.30
2023-01-04T05:37:04.043Z,7.33
2023-01-04T05:38:08.035Z,7.26
2023-01-04T05:39:09.550Z,7.32
2023-01-04T05:40:12.423Z,7.19
2023-01-04T05:41:28.968Z,7.06
2023-01-04T05:42:31.449Z,7.11
2023-01-04T05:43:33.891Z,7.17
2023-01-04T05:44:35.364Z,7.31
2023-01-04T05:45:37.882Z,7.28
2023-01-04T05:46:39.496Z,7.26
2023-01-04T05:47:42.237Z,7.25
2023-01-04T05:48:43.756Z,7.38
2023-01-04T05:49:46.256Z,7.46
2023-01-04T05:50:48.860Z,7.37
2023-01-04T05:51:50.347Z,7.43
2023-01-04T05:52:53.199Z,7.61
2023-01-04T05:53:56.033Z,7.70
2023-01-04T05:54:58.591Z,7.71
2023-01-04T05:56:00.360Z,7.75
2023-01-04T05:57:03.111Z,7.95
2023-01-04T05:58:05.960Z,7.99
2023-01-04T05:59:07.488Z,8.15
2023-01-04T06:00:12.186Z,8.27
2023-01-04T06:01:13.935Z,8.28
2023-01-04T06:02:18.752Z,8.25
2023-01-04T06:03:21.386Z,8.17
2023-01-04T06:04:23.015Z,7.86
2023-01-04T06:05:25.981Z,7.80
2023-01-04T06:06:27.490Z,7.78
2023-01-04T06:07:30.720Z,7.66
2023-01-04T06:08:32.258Z,7.48
2023-01-04T06:09:36.273Z,7.55
2023-01-04T06:10:37.849Z,7.53
2023-01-04T06:11:40.372Z,7.64
2023-01-04T06:12:42.357Z,7.75
2023-01-04T06:13:44.862Z,7.77
2023-01-04T06:14:46.584Z,7.66
2023-01-04T06:15:49.065Z,7.81
2023-01-04T06:16:50.663Z,7.86
2023-01-04T06:17:53.235Z,8.03
2023-01-04T06:18:54.761Z,7.95
2023-01-04T06:19:57.463Z,7.81
2023-01-04T06:20:58.973Z,7.99
2023-01-04T06:22:01.601Z,7.86
2023-01-04T06:23:03.213Z,7.76
2023-01-04T06:24:06.403Z,7.78
2023-01-04T06:25:10.151Z,7.88
2023-01-04T06:26:12.653Z,7.82
2023-01-04T06:27:14.353Z,7.86
2023-01-04T06:28:16.828Z,7.81
2023-01-04T06:29:18.727Z,7.75
2023-01-04T06:30:21.255Z,7.70
2023-01-04T06:31:25.164Z,7.85
2023-01-04T06:32:27.870Z,7.84
2023-01-04T06:33:29.407Z,7.88
2023-01-04T06:34:32.054Z,7.89
2023-01-04T06:35:35.958Z,7.62
2023-01-04T06:36:37.810Z,7.63
2023-01-04T06:37:40.711Z,7.86
2023-01-04T06:38:42.225Z,7.83
2023-01-04T06:39:44.722Z,7.79
2023-01-04T06:40:47.531Z,7.72
2023-01-04T06:41:50.137Z,7.81
2023-01-04T06:42:51.654Z,7.86
2023-01-04T06:43:54.284Z,7.94
2023-01-04T06:44:55.807Z,7.92
2023-01-04T06:45:58.508Z,8.00
2023-01-04T06:47:00.132Z,7.89
2023-01-04T06:48:08.712Z,7.98
2023-01-04T06:49:10.712Z,7.91
2023-01-04T06:50:13.276Z,7.75
2023-01-04T06:51:14.845Z,7.81
2023-01-04T06:52:17.304Z,7.84
2023-01-04T06:53:18.860Z,7.84
2023-01-04T06:54:21.342Z,7.74
2023-01-04T06:55:22.852Z,7.83
2023-01-04T06:56:26.705Z,7.68
2023-01-04T06:57:28.221Z,7.69
2023-01-04T06:58:30.679Z,7.85
2023-01-04T06:59:32.172Z,8.04
2023-01-04T07:00:34.832Z,8.02
2023-01-04T07:01:36.561Z,7.96
2023-01-04T07:02:39.361Z,8.12
2023-01-04T07:04:01.737Z,8.07
2023-01-04T07:05:03.720Z,7.92
2023-01-04T07:06:07.816Z,7.74
2023-01-04T07:07:09.830Z,7.72
2023-01-04T07:08:13.428Z,7.75
2023-01-04T07:09:15.016Z,7.68
2023-01-04T07:10:17.529Z,7.81
2023-01-04T07:11:19.033Z,7.77
2023-01-04T07:12:22.807Z,7.77
2023-01-04T07:13:24.630Z,7.67
2023-01-04T07:14:27.142Z,7.52
2023-01-04T07:15:38.423Z,7.64
2023-01-04T07:16:42.966Z,7.89
2023-01-04T07:17:47.157Z,7.85
2023-01-04T07:18:49.695Z,7.97
2023-01-04T07:19:51.206Z,7.77
2023-01-04T07:20:53.732Z,7.79
2023-01-04T07:21:55.851Z,7.76
2023-01-04T07:22:58.367Z,7.70
2023-01-04T07:24:00.802Z,7.67
2023-01-04T07:25:03.321Z,7.67
2023-01-04T07:26:06.284Z,7.50
2023-01-04T07:27:07.807Z,7.44
2023-01-04T07:28:11.789Z,7.41
2023-01-04T07:29:14.463Z,7.52
2023-01-04T07:30:17.194Z,7.65
2023-01-04T07:31:18.829Z,7.81
2023-01-04T07:32:21.357Z,7.80
2023-01-04T07:33:22.928Z,7.85
2023-01-04T07:34:26.685Z,7.72
2023-01-04T07:35:28.262Z,7.69
2023-01-04T07:36:30.745Z,7.75
2023-01-04T07:37:33.256Z,7.55
2023-01-04T07:38:36.113Z,7.65
2023-01-04T07:39:37.669Z,7.57
2023-01-04T07:40:56.453Z,7.53
2023-01-04T07:41:58.581Z,7.43
2023-01-04T07:43:02.083Z,7.43
2023-01-04T07:44:06.079Z,7.51
2023-01-04T07:45:09.712Z,7.56
2023-01-04T07:46:11.401Z,7.70
2023-01-04T07:47:13.878Z,7.62
2023-01-04T07:48:19.436Z,7.66
2023-01-04T07:49:22.203Z,7.65
2023-01-04T07:50:23.723Z,7.67
2023-01-04T07:51:29.139Z,7.52
2023-01-04T07:52:31.664Z,7.70
2023-01-04T07:53:33.646Z,7.67
2023-01-04T07:54:36.073Z,7.64
2023-01-04T07:55:37.597Z,7.65
2023-01-04T07:56:40.244Z,7.54
2023-01-04T07:57:41.779Z,7.59
2023-01-04T07:58:47.022Z,7.59
2023-01-04T07:59:49.901Z,7.75
2023-01-04T08:00:52.373Z,7.73
2023-01-04T08:01:55.067Z,7.89
2023-01-04T08:02:56.713Z,7.95
2023-01-04T08:03:59.390Z,7.81
2023-01-04T08:05:02.038Z,7.74
2023-01-04T08:06:04.976Z,7.75
2023-01-04T08:07:07.486Z,7.75
2023-01-04T08:08:09.189Z,7.70
2023-01-04T08:09:12.556Z,7.50
2023-01-04T08:10:17.689Z,7.39
2023-01-04T08:11:22.436Z,7.41
2023-01-04T08:12:24.953Z,7.47
2023-01-04T08:13:26.664Z,7.40
2023-01-04T08:14:29.178Z,7.44
2023-01-04T08:15:32.076Z,7.48
2023-01-04T08:16:36.818Z,7.53
2023-01-04T08:17:38.600Z,7.34
2023-01-04T08:18:41.053Z,7.35
2023-01-04T08:19:42.549Z,7.29
2023-01-04T08:20:51.033Z,7.45
2023-01-04T08:21:55.776Z,7.45
2023-01-04T08:22:58.352Z,7.42
2023-01-04T08:24:00.144Z,7.33
2023-01-04T08:25:02.622Z,7.45
2023-01-04T08:26:06.572Z,7.66
2023-01-04T08:27:11.017Z,7.71
2023-01-04T08:28:12.545Z,7.70
2023-01-04T08:29:15.080Z,7.59
2023-01-04T08:30:17.675Z,7.50
2023-01-04T08:31:23.809Z,7.34
2023-01-04T08:32:26.414Z,7.23
2023-01-04T08:33:28.937Z,7.33
2023-01-04T08:34:32.470Z,7.35
2023-01-04T08:35:34.314Z,7.44
2023-01-04T08:36:45.359Z,7.70
2023-01-04T08:37:47.841Z,7.76
2023-01-04T08:39:00.368Z,7.98
2023-01-04T08:40:04.405Z,7.82
2023-01-04T08:41:30.998Z,7.72
2023-01-04T08:42:31.823Z,7.70
2023-01-04T08:43:35.741Z,7.68
2023-01-04T08:44:38.620Z,7.74
2023-01-04T08:45:40.220Z,7.87
2023-01-04T08:46:44.452Z,7.73
2023-01-04T08:47:46.995Z,7.83
2023-01-04T08:48:48.909Z,7.93
2023-01-04T08:49:51.394Z,7.89
2023-01-04T08:50:52.934Z,7.94
2023-01-04T08:51:55.550Z,7.86
2023-01-04T08:52:57.069Z,7.63
2023-01-04T08:53:59.567Z,7.70
2023-01-04T08:55:05.577Z,7.77
2023-01-04T08:56:10.501Z,7.75
2023-01-04T08:57:12.947Z,7.85
2023-01-04T08:58:14.594Z,7.89
2023-01-04T08:59:17.077Z,7.96
2023-01-04T09:00:21.687Z,7.94
2023-01-04T09:01:23.461Z,7.80
2023-01-04T09:02:28.964Z,7.98
2023-01-04T09:03:31.367Z,7.99
2023-01-04T09:04:33.993Z,7.98
2023-01-04T09:05:35.577Z,8.09
2023-01-04T09:06:39.265Z,8.13
2023-01-04T09:07:41.698Z,8.23
2023-01-04T09:08:45.132Z,8.26
2023-01-04T09:09:47.683Z,8.16
2023-01-04T09:10:50.172Z,8.12
2023-01-04T09:11:52.646Z,8.00
2023-01-04T09:12:55.118Z,7.97
2023-01-04T09:14:06.890Z,7.95
2023-01-04T09:15:11.607Z,8.14
2023-01-04T09:16:15.526Z,8.14
2023-01-04T09:17:18.489Z,8.02
2023-01-04T09:18:31.739Z,8.08
2023-01-04T09:19:35.522Z,7.98
2023-01-04T09:20:39.951Z,8.15
2023-01-04T09:21:42.494Z,8.19
2023-01-04T09:22:44.081Z,8.15
2023-01-04T09:23:47.058Z,7.96
2023-01-04T09:24:48.572Z,7.74
2023-01-04T09:25:51.613Z,7.86
2023-01-04T09:26:54.161Z,7.85
2023-01-04T09:27:58.214Z,8.01
2023-01-04T09:29:00.694Z,8.23
2023-01-04T09:30:02.297Z,8.20
2023-01-04T09:31:08.928Z,7.86
2023-01-04T09:32:16.258Z,7.96
2023-01-04T09:33:18.257Z,7.86
2023-01-04T09:34:22.407Z,7.94
2023-01-04T09:35:24.825Z,8.02
2023-01-04T09:36:26.627Z,8.09
2023-01-04T09:37:29.197Z,8.30
2023-01-04T09:38:31.165Z,7.96
2023-01-04T09:39:33.628Z,7.94
2023-01-04T09:40:53.613Z,7.88
2023-01-04T09:41:57.971Z,7.99
2023-01-04T09:43:20.906Z,8.01
2023-01-04T09:45:12.152Z,8.27
2023-01-04T09:46:02.607Z,8.33
2023-01-04T09:47:08.132Z,8.51
2023-01-04T09:48:16.897Z,8.54
2023-01-04T09:49:30.076Z,8.33
2023-01-04T09:50:35.977Z,8.37
2023-01-04T09:51:44.352Z,8.21
2023-01-04T09:52:55.664Z,8.33
2023-01-04T09:54:02.636Z,8.44
2023-01-04T09:55:39.638Z,8.62
2023-01-04T09:56:34.808Z,8.48
2023-01-04T09:57:42.410Z,8.62
2023-01-04T09:58:45.722Z,8.65
2023-01-04T09:59:50.780Z,8.67
2023-01-04T10:00:59.745Z,8.80
2023-01-04T10:02:05.632Z,8.84
2023-01-04T10:03:15.070Z,8.61
2023-01-04T10:04:24.322Z,8.77
2023-01-04T10:05:30.915Z,8.78
2023-01-04T10:06:34.913Z,8.73
2023-01-04T10:07:36.530Z,8.75
2023-01-04T10:08:39.514Z,8.77
2023-01-04T10:09:41.024Z,8.90
2023-01-04T10:10:57.232Z,8.74
2023-01-04T10:12:14.248Z,8.71
2023-01-04T10:13:29.720Z,8.67
2023-01-04T10:14:48.122Z,8.71
2023-01-04T10:15:57.929Z,8.83
2023-01-04T10:17:23.689Z,8.81
2023-01-04T10:21:52.429Z,8.74
2023-01-04T10:23:07.122Z,8.54
2023-01-04T10:24:29.373Z,8.52
2023-01-04T10:25:44.001Z,8.58
2023-01-04T10:26:48.472Z,8.77
2023-01-04T10:28:03.767Z,8.79
2023-01-04T10:29:26.966Z,8.94
2023-01-04T10:30:41.412Z,8.89
2023-01-04T10:31:51.051Z,8.81
2023-01-04T10:33:05.011Z,8.80
2023-01-04T10:34:19.154Z,8.96
2023-01-04T10:35:23.442Z,8.88
2023-01-04T10:36:32.563Z,8.80
2023-01-04T10:37:38.581Z,8.98
2023-01-04T10:38:40.941Z,8.86
2023-01-04T10:39:45.066Z,8.75
2023-01-04T10:40:50.407Z,8.80
2023-01-04T10:41:58.590Z,8.63
2023-01-04T10:43:07.848Z,8.82
2023-01-04T10:44:18.641Z,8.72
2023-01-04T10:45:23.705Z,8.76
2023-01-04T10:46:28.907Z,8.61
2023-01-04T10:47:39.632Z,8.74
2023-01-04T10:48:50.352Z,8.73
2023-01-04T10:49:56.652Z,8.79
2023-01-04T10:51:08.940Z,8.73
2023-01-04T10:52:17.714Z,8.62
2023-01-04T10:53:27.280Z,8.52
2023-01-04T10:54:35.769Z,8.56
2023-01-04T10:56:23.982Z,8.37
2023-01-04T10:57:13.561Z,8.44
2023-01-04T10:58:22.758Z,8.46
2023-01-04T10:59:30.531Z,8.58
2023-01-04T11:00:40.179Z,8.51
2023-01-04T11:01:48.154Z,8.67
2023-01-04T11:02:56.547Z,8.65
2023-01-04T11:04:05.241Z,8.59
2023-01-04T11:05:17.166Z,8.58
2023-01-04T11:06:23.192Z,8.45
2023-01-04T11:07:28.449Z,8.54
2023-01-04T11:08:36.386Z,8.60
2023-01-04T11:09:43.770Z,8.67
2023-01-04T11:10:51.645Z,8.67
2023-01-04T11:11:56.551Z,8.63
2023-01-04T11:12:59.241Z,8.58
2023-01-04T11:14:01.889Z,8.65
2023-01-04T11:15:05.550Z,8.68
2023-01-04T11:16:08.102Z,8.72
2023-01-04T11:17:12.764Z,8.61
2023-01-04T11:18:17.037Z,8.39
2023-01-04T11:19:18.622Z,8.53
2023-01-04T11:20:26.481Z,8.73
2023-01-04T11:21:35.142Z,8.64
2023-01-04T11:22:42.041Z,8.72
2023-01-04T11:23:45.921Z,8.74
2023-01-04T11:25:33.336Z,8.85
2023-01-04T11:26:19.934Z,8.61
2023-01-04T11:27:27.183Z,8.54
2023-01-04T11:28:34.191Z,8.47
2023-01-04T11:29:42.486Z,8.38
2023-01-04T11:30:55.995Z,8.27
2023-01-04T11:32:02.301Z,8.55
2023-01-04T11:33:13.594Z,8.43
2023-01-04T11:34:16.246Z,8.15
2023-01-04T11:35:42.265Z,8.18
2023-01-04T11:36:46.653Z,8.04
2023-01-04T11:37:48.194Z,8.14
2023-01-04T11:38:56.475Z,8.14
2023-01-04T11:40:14.012Z,8.22
2023-01-04T11:41:19.096Z,8.33
2023-01-04T11:42:21.710Z,8.29
2023-01-04T11:43:25.395Z,8.30
2023-01-04T11:44:28.259Z,8.16
2023-01-04T11:45:30.810Z,8.24
2023-01-04T11:46:35.156Z,8.32
2023-01-04T11:47:48.137Z,8.48
2023-01-04T11:48:51.680Z,8.33
2023-01-04T11:49:53.253Z,8.31
2023-01-04T11:50:56.623Z,8.33
2023-01-04T11:52:00.437Z,8.33
2023-01-04T11:53:02.197Z,8.55
2023-01-04T11:54:08.185Z,8.50
2023-01-04T11:55:22.839Z,8.38
2023-01-04T11:56:27.665Z,8.45
2023-01-04T11:57:30.154Z,8.60
2023-01-04T11:58:31.685Z,8.46
2023-01-04T11:59:34.312Z,8.43
2023-01-04T12:00:35.831Z,8.37
2023-01-04T12:01:40.531Z,8.46
2023-01-04T12:03:00.832Z,8.55
2023-01-04T12:04:11.375Z,8.61
2023-01-04T12:05:24.573Z,8.63
2023-01-04T12:06:38.662Z,8.88
2023-01-04T12:07:41.391Z,8.90
2023-01-04T12:08:43.041Z,8.68
2023-01-04T12:09:46.965Z,8.72
2023-01-04T12:10:49.064Z,8.86
2023-01-04T12:11:53.223Z,8.98
2023-01-04T12:12:55.430Z,8.92
2023-01-04T12:14:02.321Z,8.89
2023-01-04T12:15:14.324Z,8.67
2023-01-04T12:16:25.317Z,8.84
2023-01-04T12:17:36.790Z,8.83
2023-01-04T12:18:42.269Z,8.96
2023-01-04T12:19:46.700Z,8.79
2023-01-04T12:20:48.379Z,8.97
2023-01-04T12:21:54.190Z,9.04
2023-01-04T12:22:56.767Z,8.92
2023-01-04T12:23:59.393Z,8.73
2023-01-04T12:25:05.293Z,9.01
2023-01-04T12:26:08.754Z,9.13
2023-01-04T12:27:15.932Z,9.30
2023-01-04T12:28:32.031Z,9.42
2023-01-04T12:29:55.483Z,9.49
2023-01-04T12:31:31.973Z,9.83
2023-01-04T12:32:45.771Z,10.17
2023-01-04T12:33:51.098Z,10.72
2023-01-04T12:34:53.684Z,10.82
2023-01-04T12:36:04.077Z,11.25
2023-01-04T12:37:07.301Z,11.27
2023-01-04T12:38:09.902Z,11.41
2023-01-04T12:39:29.848Z,11.77
2023-01-04T12:40:56.331Z,11.65
2023-01-04T12:42:23.213Z,11.53
2023-01-04T12:43:26.752Z,11.68
2023-01-04T12:45:21.088Z,11.56
2023-01-04T12:47:00.508Z,11.02
2023-01-04T12:48:54.191Z,10.94
2023-01-04T12:50:03.030Z,10.80
2023-01-04T12:51:33.387Z,10.55
2023-01-04T12:53:01.836Z,10.57
2023-01-04T12:54:04.800Z,10.45
2023-01-04T12:55:45.493Z,10.49
2023-01-04T12:57:36.770Z,10.58
2023-01-04T12:59:15.439Z,10.78
2023-01-04T13:00:07.355Z,11.13
2023-01-04T13:01:21.471Z,10.78
2023-01-04T13:02:25.298Z,10.88
2023-01-04T13:03:48.162Z,11.34
2023-01-04T13:05:09.305Z,11.19
2023-01-04T13:06:15.306Z,10.94
2023-01-04T13:07:22.843Z,11.09
2023-01-04T13:08:24.710Z,10.95
2023-01-04T13:09:27.224Z,10.90
2023-01-04T13:10:33.794Z,10.70
2023-01-04T13:11:58.834Z,10.33
2023-01-04T13:13:19.361Z,10.05
2023-01-04T13:14:31.169Z,10.15
2023-01-04T13:15:45.878Z,10.25
2023-01-04T13:16:57.174Z,10.24
2023-01-04T13:17:59.870Z,10.14
2023-01-04T13:19:10.708Z,10.10
2023-01-04T13:20:14.708Z,10.17
2023-01-04T13:21:32.311Z,10.23
2023-01-04T13:22:37.104Z,10.26
2023-01-04T13:23:51.324Z,10.31
2023-01-04T13:24:56.831Z,10.19
2023-01-04T13:26:46.078Z,10.31
2023-01-04T13:28:02.259Z,10.02
2023-01-04T13:29:18.614Z,10.00
2023-01-04T13:30:30.314Z,9.81
2023-01-04T13:31:31.990Z,9.84
2023-01-04T13:32:46.875Z,9.82
2023-01-04T13:33:55.309Z,9.78
2023-01-04T13:35:08.377Z,9.66
2023-01-04T13:36:16.340Z,9.84
2023-01-04T13:37:27.863Z,9.86
2023-01-04T13:38:41.036Z,9.97
2023-01-04T13:39:49.729Z,10.08
2023-01-04T13:40:52.331Z,9.93
2023-01-04T13:41:54.885Z,9.87
2023-01-04T13:43:13.001Z,9.98
2023-01-04T13:44:44.033Z,9.69
2023-01-04T13:46:05.856Z,9.59
2023-01-04T13:47:09.383Z,9.59
2023-01-04T13:48:15.014Z,9.64
2023-01-04T13:49:17.245Z,9.61
2023-01-04T13:50:30.366Z,9.74
2023-01-04T13:51:37.880Z,9.49
2023-01-04T13:52:58.353Z,9.56
2023-01-04T13:54:06.164Z,9.28
2023-01-04T13:55:12.208Z,9.45
2023-01-04T13:56:20.596Z,9.37
2023-01-04T13:57:22.104Z,9.49
2023-01-04T13:58:28.881Z,9.63
2023-01-04T13:59:31.916Z,9.56
2023-01-04T14:00:42.466Z,9.53
2023-01-04T14:01:46.167Z,9.47
2023-01-04T14:03:01.424Z,9.38
2023-01-04T14:04:07.435Z,9.36
2023-01-04T14:05:16.038Z,9.27
2023-01-04T14:06:24.399Z,9.23
2023-01-04T14:07:28.055Z,9.17
2023-01-04T14:08:34.036Z,9.15
2023-01-04T14:09:44.334Z,9.20
2023-01-04T14:10:46.037Z,9.32
2023-01-04T14:12:09.108Z,9.34
2023-01-04T14:13:17.345Z,9.18
2023-01-04T14:14:24.146Z,9.36
2023-01-04T14:15:27.058Z,9.39
2023-01-04T14:16:28.688Z,9.31
2023-01-04T14:17:35.874Z,9.40
2023-01-04T14:18:38.454Z,9.38
2023-01-04T14:19:43.706Z,9.32
2023-01-04T14:20:46.218Z,9.33
2023-01-04T14:21:49.447Z,9.46
2023-01-04T14:22:56.049Z,9.49
2023-01-04T14:24:00.286Z,9.45
2023-01-04T14:25:48.846Z,9.56
2023-01-04T14:26:51.384Z,9.66
2023-01-04T14:27:53.920Z,9.74
2023-01-04T14:28:56.666Z,9.84
2023-01-04T14:29:58.610Z,9.82
2023-01-04T14:31:28.708Z,9.76
2023-01-04T14:32:30.337Z,9.54
2023-01-04T14:33:39.213Z,9.49
2023-01-04T14:34:41.769Z,9.53
2023-01-04T14:35:47.685Z,9.41
2023-01-04T14:37:04.422Z,9.43
2023-01-04T14:38:13.753Z,9.31
2023-01-04T14:39:24.852Z,9.46
2023-01-04T14:40:29.147Z,9.73
2023-01-04T14:41:34.843Z,9.87
2023-01-04T14:42:37.263Z,9.94
2023-01-04T14:43:44.597Z,9.84
2023-01-04T14:44:47.050Z,9.97
2023-01-04T14:45:48.527Z,9.98
2023-01-04T14:46:54.000Z,9.84
2023-01-04T14:47:56.605Z,9.85
2023-01-04T14:49:01.386Z,9.93
2023-01-04T14:50:04.159Z,9.93
2023-01-04T14:51:07.525Z,9.75
2023-01-04T14:52:19.204Z,9.75
2023-01-04T14:53:21.680Z,9.68
2023-01-04T14:54:25.849Z,9.79